createdAt,value
2022-12-01T00:02:55.461Z,101658.38
2022-12-01T00:13:00.311Z,101662.66
2022-12-01T00:23:05.008Z,101677.19
2022-12-01T00:33:07.948Z,101669.47
2022-12-01T00:43:12.370Z,101666.91
2022-12-01T00:53:15.467Z,101663.44
2022-12-01T01:03:19.868Z,101669.44
2022-12-01T01:13:22.823Z,101676.28
2022-12-01T01:23:27.608Z,101689.13
2022-12-01T01:33:30.958Z,101695.91
2022-12-01T01:43:47.576Z,101693.34
2022-12-01T01:53:54.899Z,101695.09
2022-12-01T02:03:59.624Z,101681.41
2022-12-01T02:14:14.028Z,101696.78
2022-12-01T02:24:49.407Z,101693.38
2022-12-01T02:35:00.661Z,101688.16
2022-12-01T02:45:06.639Z,101687.38
2022-12-01T02:55:11.276Z,101686.50
2022-12-01T03:05:20.961Z,101684.75
2022-12-01T03:15:34.166Z,101681.31
2022-12-01T03:25:41.143Z,101677.03
2022-12-01T03:35:54.600Z,101677.88
2022-12-01T03:46:05.895Z,101673.59
2022-12-01T03:56:11.524Z,101679.59
2022-12-01T04:06:15.225Z,101678.72
2022-12-01T04:16:19.585Z,101684.72
2022-12-01T04:26:22.519Z,101682.13
2022-12-01T04:36:28.057Z,101679.59
2022-12-01T04:46:30.942Z,101678.72
2022-12-01T04:56:35.360Z,101678.75
2022-12-01T05:06:38.219Z,101685.59
2022-12-01T05:16:42.901Z,101687.31
2022-12-01T05:26:46.438Z,101687.28
2022-12-01T05:36:50.800Z,101685.63
2022-12-01T05:46:53.650Z,101684.75
2022-12-01T05:56:57.930Z,101688.91
2022-12-01T06:07:00.859Z,101690.75
2022-12-01T06:17:05.569Z,101700.19
2022-12-01T06:27:08.606Z,101704.44
2022-12-01T06:37:15.755Z,101708.63
2022-12-01T06:47:18.643Z,101716.34
2022-12-01T06:57:22.926Z,101727.44
2022-12-01T07:07:26.434Z,101738.59
2022-12-01T07:17:31.476Z,101747.94
2022-12-01T07:27:34.814Z,101746.19
2022-12-01T07:37:39.201Z,101753.00
2022-12-01T07:47:42.292Z,101757.34
2022-12-01T07:57:46.819Z,101759.84
2022-12-01T08:07:49.975Z,101764.13
2022-12-01T08:17:54.380Z,101765.88
2022-12-01T08:27:57.848Z,101770.97
2022-12-01T08:38:02.255Z,101774.44
2022-12-01T08:58:48.252Z,101777.81
2022-12-01T09:08:51.176Z,101785.50
2022-12-01T09:18:56.949Z,101792.44
2022-12-01T09:29:02.128Z,101785.53
2022-12-01T09:39:07.372Z,101793.41
2022-12-01T09:49:17.731Z,101796.72
2022-12-01T09:59:25.143Z,101792.38
2022-12-01T10:09:35.637Z,101786.16
2022-12-01T10:19:46.020Z,101773.38
2022-12-01T10:29:59.851Z,101766.63
2022-12-01T10:40:04.729Z,101759.94
2022-12-01T10:50:09.777Z,101762.38
2022-12-01T11:00:57.399Z,101758.06
2022-12-01T11:10:50.102Z,101756.44
2022-12-01T11:21:09.612Z,101746.97
2022-12-01T11:31:13.669Z,101731.69
2022-12-01T11:41:29.342Z,101735.00
2022-12-01T11:51:37.747Z,101729.06
2022-12-01T12:02:05.502Z,101722.97
2022-12-01T12:12:21.460Z,101717.97
2022-12-01T12:22:35.016Z,101711.81
2022-12-01T12:32:55.266Z,101713.47
2022-12-01T12:43:19.654Z,101710.06
2022-12-01T12:53:27.716Z,101698.19
2022-12-01T13:03:40.026Z,101702.38
2022-12-01T13:14:02.945Z,101695.59
2022-12-01T13:24:11.972Z,101684.41
2022-12-01T13:34:23.816Z,101675.88
2022-12-01T13:44:33.051Z,101666.47
2022-12-01T13:54:38.324Z,101666.44
2022-12-01T14:04:42.735Z,101669.88
2022-12-01T14:14:53.990Z,101672.47
2022-12-01T14:24:58.831Z,101668.16
2022-12-01T14:35:06.385Z,101666.50
2022-12-01T14:45:17.032Z,101666.59
2022-12-01T14:55:22.908Z,101669.19
2022-12-01T15:05:29.414Z,101675.13
2022-12-01T15:15:32.440Z,101671.72
2022-12-01T15:25:37.745Z,101669.84
2022-12-01T15:35:41.531Z,101672.47
2022-12-01T15:45:52.153Z,101678.34
2022-12-01T15:55:59.202Z,101676.50
2022-12-01T16:06:03.867Z,101683.56
2022-12-01T16:16:30.792Z,101699.53
2022-12-01T16:26:35.276Z,101716.56
2022-12-01T16:36:38.118Z,101708.88
2022-12-01T16:46:43.064Z,101702.00
2022-12-01T16:56:46.145Z,101690.81
2022-12-01T17:06:50.761Z,101674.69
2022-12-01T17:16:53.888Z,101679.66
2022-12-01T17:26:58.221Z,101685.56
2022-12-01T17:37:01.576Z,101690.72
2022-12-01T17:47:06.160Z,101698.44
2022-12-01T17:57:09.137Z,101713.75
2022-12-01T18:07:13.593Z,101705.94
2022-12-01T18:17:16.998Z,101711.09
2022-12-01T18:27:21.444Z,101722.22
2022-12-01T18:37:24.626Z,101715.31
2022-12-01T18:47:29.470Z,101718.72
2022-12-01T18:57:32.627Z,101715.25
2022-12-01T19:07:36.954Z,101718.56
2022-12-01T19:17:40.227Z,101716.09
2022-12-01T19:27:44.510Z,101712.88
2022-12-01T19:37:47.363Z,101706.72
2022-12-01T19:47:53.600Z,101699.03
2022-12-01T19:57:57.433Z,101698.16
2022-12-01T20:08:02.885Z,101688.69
2022-12-01T20:18:06.182Z,101681.06
2022-12-01T20:28:10.606Z,101693.03
2022-12-01T20:38:13.606Z,101694.50
2022-12-01T20:48:18.747Z,101696.25
2022-12-01T20:58:21.810Z,101694.34
2022-12-01T21:08:26.383Z,101693.63
2022-12-01T21:18:35.723Z,101691.78
2022-12-01T21:28:40.310Z,101693.44
2022-12-01T21:38:43.938Z,101695.38
2022-12-01T21:48:49.118Z,101685.06
2022-12-01T21:58:53.527Z,101671.50
2022-12-01T22:09:00.891Z,101672.25
2022-12-01T22:19:24.356Z,101657.88
2022-12-01T22:29:31.391Z,101647.72
2022-12-01T22:39:35.089Z,101633.13
2022-12-01T22:49:39.854Z,101636.53
2022-12-01T22:59:44.844Z,101628.03
2022-12-01T23:09:49.681Z,101622.88
2022-12-01T23:19:55.118Z,101622.88
2022-12-01T23:30:00.236Z,101604.91
2022-12-01T23:40:09.328Z,101621.00
2022-12-01T23:50:17.767Z,101611.56
